sensor_id;sensor_type;location;lat;lon;timestamp;pressure;altitude;pressure_sealevel;temperature
69785;BMP280;14177;51.520;6.764;2023-05-25T00:01:41;102236.00;;;12.24
69785;BMP280;14177;51.520;6.764;2023-05-25T00:04:10;102235.19;;;12.21
69785;BMP280;14177;51.520;6.764;2023-05-25T00:06:37;102236.94;;;12.20
69785;BMP280;14177;51.520;6.764;2023-05-25T00:09:06;102230.09;;;12.15
69785;BMP280;14177;51.520;6.764;2023-05-25T00:11:34;102232.78;;;12.09
69785;BMP280;14177;51.520;6.764;2023-05-25T00:14:01;102226.75;;;12.04
69785;BMP280;14177;51.520;6.764;2023-05-25T00:16:28;102227.69;;;12.00
69785;BMP280;14177;51.520;6.764;2023-05-25T00:18:55;102224.28;;;11.97
69785;BMP280;14177;51.520;6.764;2023-05-25T00:21:23;102222.56;;;11.94
69785;BMP280;14177;51.520;6.764;2023-05-25T00:23:51;102227.81;;;11.93
69785;BMP280;14177;51.520;6.764;2023-05-25T00:26:18;102227.84;;;11.88
69785;BMP280;14177;51.520;6.764;2023-05-25T00:28:45;102228.81;;;11.83
69785;BMP280;14177;51.520;6.764;2023-05-25T00:31:12;102226.28;;;11.77
69785;BMP280;14177;51.520;6.764;2023-05-25T00:33:40;102224.59;;;11.71
69785;BMP280;14177;51.520;6.764;2023-05-25T00:36:07;102228.13;;;11.67
69785;BMP280;14177;51.520;6.764;2023-05-25T00:38:35;102233.44;;;11.61
69785;BMP280;14177;51.520;6.764;2023-05-25T00:41:04;102237.84;;;11.55
69785;BMP280;14177;51.520;6.764;2023-05-25T00:43:32;102244.81;;;11.50
69785;BMP280;14177;51.520;6.764;2023-05-25T00:45:59;102242.28;;;11.45
69785;BMP280;14177;51.520;6.764;2023-05-25T00:48:27;102239.72;;;11.42
69785;BMP280;14177;51.520;6.764;2023-05-25T00:50:54;102243.22;;;11.38
69785;BMP280;14177;51.520;6.764;2023-05-25T00:53:25;102241.53;;;11.34
69785;BMP280;14177;51.520;6.764;2023-05-25T00:56:17;102239.81;;;11.32
69785;BMP280;14177;51.520;6.764;2023-05-25T00:58:53;102247.66;;;11.30
69785;BMP280;14177;51.520;6.764;2023-05-25T01:01:21;102246.84;;;11.27
69785;BMP280;14177;51.520;6.764;2023-05-25T01:03:52;102245.16;;;11.21
69785;BMP280;14177;51.520;6.764;2023-05-25T01:06:22;102246.91;;;11.19
69785;BMP280;14177;51.520;6.764;2023-05-25T01:08:55;102259.09;;;11.16
69785;BMP280;14177;51.520;6.764;2023-05-25T01:11:32;102258.25;;;11.12
69785;BMP280;14177;51.520;6.764;2023-05-25T01:14:01;102251.34;;;11.08
69785;BMP280;14177;51.520;6.764;2023-05-25T01:16:29;102254.84;;;11.06
69785;BMP280;14177;51.520;6.764;2023-05-25T01:18:56;102255.75;;;11.02
69785;BMP280;14177;51.520;6.764;2023-05-25T01:21:34;102261.00;;;10.99
69785;BMP280;14177;51.520;6.764;2023-05-25T01:24:38;102264.50;;;10.93
69785;BMP280;14177;51.520;6.764;2023-05-25T01:27:22;102258.47;;;10.91
69785;BMP280;14177;51.520;6.764;2023-05-25T01:29:49;102254.19;;;10.88
69785;BMP280;14177;51.520;6.764;2023-05-25T01:32:17;102254.22;;;10.85
69785;BMP280;14177;51.520;6.764;2023-05-25T01:34:47;102250.75;;;10.81
69785;BMP280;14177;51.520;6.764;2023-05-25T01:37:14;102258.59;;;10.80
69785;BMP280;14177;51.520;6.764;2023-05-25T01:39:43;102259.47;;;10.79
69785;BMP280;14177;51.520;6.764;2023-05-25T01:42:10;102261.22;;;10.77
69785;BMP280;14177;51.520;6.764;2023-05-25T01:44:38;102265.59;;;10.72
69785;BMP280;14177;51.520;6.764;2023-05-25T01:47:34;102268.22;;;10.69
69785;BMP280;14177;51.520;6.764;2023-05-25T01:53:22;102272.59;;;10.61
69785;BMP280;14177;51.520;6.764;2023-05-25T01:56:06;102276.06;;;10.60
69785;BMP280;14177;51.520;6.764;2023-05-25T01:58:42;102274.34;;;10.57
69785;BMP280;14177;51.520;6.764;2023-05-25T02:01:14;102274.38;;;10.56
69785;BMP280;14177;51.520;6.764;2023-05-25T02:03:46;102267.47;;;10.52
69785;BMP280;14177;51.520;6.764;2023-05-25T02:06:19;102270.13;;;10.47
69785;BMP280;14177;51.520;6.764;2023-05-25T02:08:51;102267.53;;;10.44
69785;BMP280;14177;51.520;6.764;2023-05-25T02:11:29;102268.41;;;10.42
69785;BMP280;14177;51.520;6.764;2023-05-25T02:14:17;102265.84;;;10.40
69785;BMP280;14177;51.520;6.764;2023-05-25T02:17:01;102265.84;;;10.39
69785;BMP280;14177;51.520;6.764;2023-05-25T02:19:34;102270.16;;;10.41
69785;BMP280;14177;51.520;6.764;2023-05-25T02:22:03;102267.56;;;10.40
69785;BMP280;14177;51.520;6.764;2023-05-25T02:24:34;102270.19;;;10.38
69785;BMP280;14177;51.520;6.764;2023-05-25T02:27:09;102269.28;;;10.41
69785;BMP280;14177;51.520;6.764;2023-05-25T02:29:58;102269.31;;;10.38
69785;BMP280;14177;51.520;6.764;2023-05-25T02:32:44;102259.81;;;10.35
69785;BMP280;14177;51.520;6.764;2023-05-25T02:35:32;102266.69;;;10.38
69785;BMP280;14177;51.520;6.764;2023-05-25T02:41:11;102270.19;;;10.35
69785;BMP280;14177;51.520;6.764;2023-05-25T02:43:52;102265.84;;;10.36
69785;BMP280;14177;51.520;6.764;2023-05-25T02:46:24;102271.03;;;10.36
69785;BMP280;14177;51.520;6.764;2023-05-25T02:49:08;102273.66;;;10.34
69785;BMP280;14177;51.520;6.764;2023-05-25T02:51:43;102269.31;;;10.35
69785;BMP280;14177;51.520;6.764;2023-05-25T02:54:24;102269.34;;;10.32
69785;BMP280;14177;51.520;6.764;2023-05-25T02:57:12;102262.44;;;10.28
69785;BMP280;14177;51.520;6.764;2023-05-25T03:00:00;102275.47;;;10.22
69785;BMP280;14177;51.520;6.764;2023-05-25T03:02:35;102273.81;;;10.15
69785;BMP280;14177;51.520;6.764;2023-05-25T03:05:14;102272.13;;;10.03
69785;BMP280;14177;51.520;6.764;2023-05-25T03:07:55;102275.59;;;9.93
69785;BMP280;14177;51.520;6.764;2023-05-25T03:10:30;102278.25;;;9.86
69785;BMP280;14177;51.520;6.764;2023-05-25T03:13:03;102279.13;;;9.79
69785;BMP280;14177;51.520;6.764;2023-05-25T03:15:33;102287.81;;;9.75
69785;BMP280;14177;51.520;6.764;2023-05-25T03:18:08;102299.06;;;9.71
69785;BMP280;14177;51.520;6.764;2023-05-25T03:20:39;102297.34;;;9.67
69785;BMP280;14177;51.520;6.764;2023-05-25T03:23:18;102303.44;;;9.64
69785;BMP280;14177;51.520;6.764;2023-05-25T03:25:55;102299.97;;;9.63
69785;BMP280;14177;51.520;6.764;2023-05-25T03:28:25;102307.75;;;9.61
69785;BMP280;14177;51.520;6.764;2023-05-25T03:31:10;102306.03;;;9.60
69785;BMP280;14177;51.520;6.764;2023-05-25T03:33:43;102311.22;;;9.60
69785;BMP280;14177;51.520;6.764;2023-05-25T03:36:16;102323.31;;;9.61
69785;BMP280;14177;51.520;6.764;2023-05-25T03:38:49;102315.53;;;9.64
69785;BMP280;14177;51.520;6.764;2023-05-25T03:41:23;102325.91;;;9.65
69785;BMP280;14177;51.520;6.764;2023-05-25T03:43:50;102325.06;;;9.66
69785;BMP280;14177;51.520;6.764;2023-05-25T03:46:18;102331.94;;;9.69
69785;BMP280;14177;51.520;6.764;2023-05-25T03:48:45;102332.81;;;9.69
69785;BMP280;14177;51.520;6.764;2023-05-25T03:51:13;102331.97;;;9.66
69785;BMP280;14177;51.520;6.764;2023-05-25T03:53:40;102327.63;;;9.65
69785;BMP280;14177;51.520;6.764;2023-05-25T03:56:07;102331.09;;;9.67
69785;BMP280;14177;51.520;6.764;2023-05-25T03:58:36;102332.81;;;9.68
69785;BMP280;14177;51.520;6.764;2023-05-25T04:01:03;102336.28;;;9.68
69785;BMP280;14177;51.520;6.764;2023-05-25T04:03:31;102334.56;;;9.70
69785;BMP280;14177;51.520;6.764;2023-05-25T04:05:59;102331.06;;;9.70
69785;BMP280;14177;51.520;6.764;2023-05-25T04:08:27;102322.44;;;9.69
69785;BMP280;14177;51.520;6.764;2023-05-25T04:10:54;102334.53;;;9.72
69785;BMP280;14177;51.520;6.764;2023-05-25T04:13:22;102327.59;;;9.74
69785;BMP280;14177;51.520;6.764;2023-05-25T04:15:50;102333.66;;;9.76
69785;BMP280;14177;51.520;6.764;2023-05-25T04:18:20;102326.72;;;9.78
69785;BMP280;14177;51.520;6.764;2023-05-25T04:20:48;102334.50;;;9.81
69785;BMP280;14177;51.520;6.764;2023-05-25T04:23:17;102337.09;;;9.84
69785;BMP280;14177;51.520;6.764;2023-05-25T04:25:46;102343.13;;;9.87
69785;BMP280;14177;51.520;6.764;2023-05-25T04:28:17;102352.63;;;9.93
69785;BMP280;14177;51.520;6.764;2023-05-25T04:31:10;102341.38;;;9.95
69785;BMP280;14177;51.520;6.764;2023-05-25T04:33:49;102340.53;;;10.01
69785;BMP280;14177;51.520;6.764;2023-05-25T04:36:24;102344.84;;;10.03
69785;BMP280;14177;51.520;6.764;2023-05-25T04:38:51;102342.22;;;10.08
69785;BMP280;14177;51.520;6.764;2023-05-25T04:41:22;102351.72;;;10.12
69785;BMP280;14177;51.520;6.764;2023-05-25T04:43:54;102352.59;;;10.14
69785;BMP280;14177;51.520;6.764;2023-05-25T04:46:34;102352.59;;;10.14
69785;BMP280;14177;51.520;6.764;2023-05-25T04:49:05;102362.13;;;10.15
69785;BMP280;14177;51.520;6.764;2023-05-25T04:51:34;102362.97;;;10.17
69785;BMP280;14177;51.520;6.764;2023-05-25T04:54:03;102369.00;;;10.17
69785;BMP280;14177;51.520;6.764;2023-05-25T04:56:30;102370.72;;;10.18
69785;BMP280;14177;51.520;6.764;2023-05-25T04:58:57;102369.84;;;10.21
69785;BMP280;14177;51.520;6.764;2023-05-25T05:01:25;102376.75;;;10.22
69785;BMP280;14177;51.520;6.764;2023-05-25T05:03:55;102382.81;;;10.25
69785;BMP280;14177;51.520;6.764;2023-05-25T05:06:22;102386.25;;;10.29
69785;BMP280;14177;51.520;6.764;2023-05-25T05:08:51;102386.22;;;10.35
69785;BMP280;14177;51.520;6.764;2023-05-25T05:11:18;102388.78;;;10.44
69785;BMP280;14177;51.520;6.764;2023-05-25T05:13:45;102380.97;;;10.47
69785;BMP280;14177;51.520;6.764;2023-05-25T05:16:12;102384.44;;;10.49
69785;BMP280;14177;51.520;6.764;2023-05-25T05:18:40;102380.94;;;10.56
69785;BMP280;14177;51.520;6.764;2023-05-25T05:21:07;102377.41;;;10.64
69785;BMP280;14177;51.520;6.764;2023-05-25T05:23:35;102378.25;;;10.71
69785;BMP280;14177;51.520;6.764;2023-05-25T05:26:02;102388.59;;;10.80
69785;BMP280;14177;51.520;6.764;2023-05-25T05:28:30;102385.06;;;10.85
69785;BMP280;14177;51.520;6.764;2023-05-25T05:30:57;102398.91;;;10.88
69785;BMP280;14177;51.520;6.764;2023-05-25T05:33:24;102391.91;;;10.93
69785;BMP280;14177;51.520;6.764;2023-05-25T05:35:52;102386.69;;;10.99
69785;BMP280;14177;51.520;6.764;2023-05-25T05:38:21;102391.81;;;11.08
69785;BMP280;14177;51.520;6.764;2023-05-25T05:40:48;102405.63;;;11.16
69785;BMP280;14177;51.520;6.764;2023-05-25T05:43:21;102402.06;;;11.26
69785;BMP280;14177;51.520;6.764;2023-05-25T05:45:47;102409.78;;;11.37
69785;BMP280;14177;51.520;6.764;2023-05-25T05:48:15;102403.63;;;11.45
69785;BMP280;14177;51.520;6.764;2023-05-25T05:50:43;102413.13;;;11.51
69785;BMP280;14177;51.520;6.764;2023-05-25T05:53:11;102413.91;;;11.62
69785;BMP280;14177;51.520;6.764;2023-05-25T05:55:53;102420.78;;;11.67
69785;BMP280;14177;51.520;6.764;2023-05-25T05:58:30;102432.81;;;11.80
69785;BMP280;14177;51.520;6.764;2023-05-25T06:00:59;102429.31;;;11.84
69785;BMP280;14177;51.520;6.764;2023-05-25T06:03:27;102427.50;;;11.89
69785;BMP280;14177;51.520;6.764;2023-05-25T06:05:57;102435.28;;;11.94
69785;BMP280;14177;51.520;6.764;2023-05-25T06:08:25;102433.53;;;11.96
69785;BMP280;14177;51.520;6.764;2023-05-25T06:10:53;102430.00;;;12.01
69785;BMP280;14177;51.520;6.764;2023-05-25T06:13:22;102433.31;;;12.15
69785;BMP280;14177;51.520;6.764;2023-05-25T06:15:49;102420.13;;;12.27
69785;BMP280;14177;51.520;6.764;2023-05-25T06:18:21;102427.81;;;12.37
69785;BMP280;14177;51.520;6.764;2023-05-25T06:20:49;102423.31;;;12.47
69785;BMP280;14177;51.520;6.764;2023-05-25T06:23:16;102430.16;;;12.57
69785;BMP280;14177;51.520;6.764;2023-05-25T06:25:44;102435.25;;;12.66
69785;BMP280;14177;51.520;6.764;2023-05-25T06:28:13;102430.66;;;12.81
69785;BMP280;14177;51.520;6.764;2023-05-25T06:30:41;102430.56;;;12.92
69785;BMP280;14177;51.520;6.764;2023-05-25T06:33:09;102433.03;;;13.01
69785;BMP280;14177;51.520;6.764;2023-05-25T06:35:36;102430.38;;;13.02
69785;BMP280;14177;51.520;6.764;2023-05-25T06:38:03;102434.66;;;13.08
69785;BMP280;14177;51.520;6.764;2023-05-25T06:40:31;102438.03;;;13.13
69785;BMP280;14177;51.520;6.764;2023-05-25T06:42:58;102437.88;;;13.23
69785;BMP280;14177;51.520;6.764;2023-05-25T06:45:37;102448.09;;;13.36
69785;BMP280;14177;51.520;6.764;2023-05-25T06:48:04;102447.91;;;13.48
69785;BMP280;14177;51.520;6.764;2023-05-25T06:50:32;102443.31;;;13.62
69785;BMP280;14177;51.520;6.764;2023-05-25T06:52:59;102443.03;;;13.77
69785;BMP280;14177;51.520;6.764;2023-05-25T06:55:28;102449.84;;;13.86
69785;BMP280;14177;51.520;6.764;2023-05-25T06:57:57;102455.78;;;13.92
69785;BMP280;14177;51.520;6.764;2023-05-25T07:00:30;102449.56;;;13.99
69785;BMP280;14177;51.520;6.764;2023-05-25T07:03:13;102455.50;;;14.07
69785;BMP280;14177;51.520;6.764;2023-05-25T07:05:43;102450.13;;;14.16
69785;BMP280;14177;51.520;6.764;2023-05-25T07:08:13;102450.13;;;14.16
69785;BMP280;14177;51.520;6.764;2023-05-25T07:13:48;102451.56;;;14.32
69785;BMP280;14177;51.520;6.764;2023-05-25T07:16:25;102453.03;;;14.45
69785;BMP280;14177;51.520;6.764;2023-05-25T07:18:53;102458.63;;;14.68
69785;BMP280;14177;51.520;6.764;2023-05-25T07:21:37;102448.72;;;14.82
69785;BMP280;14177;51.520;6.764;2023-05-25T07:25:31;102445.66;;;15.01
69785;BMP280;14177;51.520;6.764;2023-05-25T07:28:13;102446.88;;;15.23
69785;BMP280;14177;51.520;6.764;2023-05-25T07:45:37;102469.97;;;15.78
69785;BMP280;14177;51.520;6.764;2023-05-25T07:48:27;102465.41;;;15.84
69785;BMP280;14177;51.520;6.764;2023-05-25T07:51:29;102469.41;;;15.98
69785;BMP280;14177;51.520;6.764;2023-05-25T07:54:06;102462.56;;;16.23
69785;BMP280;14177;51.520;6.764;2023-05-25T07:56:33;102475.44;;;16.32
69785;BMP280;14177;51.520;6.764;2023-05-25T07:59:00;102473.78;;;16.28
69785;BMP280;14177;51.520;6.764;2023-05-25T08:01:33;102467.31;;;16.41
69785;BMP280;14177;51.520;6.764;2023-05-25T08:04:01;102475.13;;;16.44
69785;BMP280;14177;51.520;6.764;2023-05-25T08:06:28;102474.66;;;16.59
69785;BMP280;14177;51.520;6.764;2023-05-25T08:08:55;102472.50;;;16.73
69785;BMP280;14177;51.520;6.764;2023-05-25T08:11:27;102468.56;;;16.88
69785;BMP280;14177;51.520;6.764;2023-05-25T08:13:54;102476.25;;;17.19
69785;BMP280;14177;51.520;6.764;2023-05-25T08:16:21;102486.28;;;17.62
69785;BMP280;14177;51.520;6.764;2023-05-25T08:18:48;102477.72;;;17.81
69785;BMP280;14177;51.520;6.764;2023-05-25T08:21:15;102479.00;;;17.94
69785;BMP280;14177;51.520;6.764;2023-05-25T08:23:42;102478.91;;;17.97
69785;BMP280;14177;51.520;6.764;2023-05-25T08:26:10;102485.06;;;17.96
69785;BMP280;14177;51.520;6.764;2023-05-25T08:28:57;102475.41;;;17.97
69785;BMP280;14177;51.520;6.764;2023-05-25T08:31:24;102479.38;;;18.08
69785;BMP280;14177;51.520;6.764;2023-05-25T08:33:51;102475.22;;;18.03
69785;BMP280;14177;51.520;6.764;2023-05-25T08:36:18;102480.09;;;17.89
69785;BMP280;14177;51.520;6.764;2023-05-25T08:38:45;102483.09;;;17.78
69785;BMP280;14177;51.520;6.764;2023-05-25T08:41:15;102476.34;;;17.70
69785;BMP280;14177;51.520;6.764;2023-05-25T08:43:44;102486.47;;;17.56
69785;BMP280;14177;51.520;6.764;2023-05-25T08:46:14;102489.47;;;17.45
69785;BMP280;14177;51.520;6.764;2023-05-25T08:48:43;102492.06;;;17.47
69785;BMP280;14177;51.520;6.764;2023-05-25T08:51:13;102497.19;;;17.50
69785;BMP280;14177;51.520;6.764;2023-05-25T08:53:42;102502.44;;;17.50
69785;BMP280;14177;51.520;6.764;2023-05-25T08:56:19;102493.59;;;17.52
69785;BMP280;14177;51.520;6.764;2023-05-25T08:59:03;102492.00;;;17.99
69785;BMP280;14177;51.520;6.764;2023-05-25T09:01:38;102496.84;;;18.35
69785;BMP280;14177;51.520;6.764;2023-05-25T09:04:12;102489.81;;;18.58
69785;BMP280;14177;51.520;6.764;2023-05-25T09:06:45;102488.81;;;18.84
69785;BMP280;14177;51.520;6.764;2023-05-25T09:09:32;102496.19;;;19.20
69785;BMP280;14177;51.520;6.764;2023-05-25T09:12:04;102491.09;;;19.37
69785;BMP280;14177;51.520;6.764;2023-05-25T09:14:35;102492.00;;;19.58
69785;BMP280;14177;51.520;6.764;2023-05-25T09:17:03;102490.63;;;19.89
69785;BMP280;14177;51.520;6.764;2023-05-25T09:19:31;102498.44;;;20.12
69785;BMP280;14177;51.520;6.764;2023-05-25T09:22:01;102508.13;;;20.31
69785;BMP280;14177;51.520;6.764;2023-05-25T09:24:42;102498.72;;;20.06
69785;BMP280;14177;51.520;6.764;2023-05-25T09:27:12;102509.03;;;19.70
69785;BMP280;14177;51.520;6.764;2023-05-25T09:29:45;102516.41;;;19.41
69785;BMP280;14177;51.520;6.764;2023-05-25T09:32:12;102497.66;;;19.27
69785;BMP280;14177;51.520;6.764;2023-05-25T09:34:45;102502.81;;;19.07
69785;BMP280;14177;51.520;6.764;2023-05-25T09:37:15;102495.28;;;18.98
69785;BMP280;14177;51.520;6.764;2023-05-25T09:39:45;102508.97;;;18.85
69785;BMP280;14177;51.520;6.764;2023-05-25T09:42:13;102497.94;;;18.75
69785;BMP280;14177;51.520;6.764;2023-05-25T09:44:41;102504.34;;;18.91
69785;BMP280;14177;51.520;6.764;2023-05-25T09:47:09;102507.41;;;19.02
69785;BMP280;14177;51.520;6.764;2023-05-25T09:49:36;102497.78;;;19.01
69785;BMP280;14177;51.520;6.764;2023-05-25T09:52:03;102500.19;;;19.07
69785;BMP280;14177;51.520;6.764;2023-05-25T09:54:30;102498.13;;;19.15
69785;BMP280;14177;51.520;6.764;2023-05-25T09:57:01;102510.16;;;19.22
69785;BMP280;14177;51.520;6.764;2023-05-25T09:59:32;102513.66;;;19.44
69785;BMP280;14177;51.520;6.764;2023-05-25T10:02:00;102513.69;;;19.64
69785;BMP280;14177;51.520;6.764;2023-05-25T10:04:27;102511.34;;;19.57
69785;BMP280;14177;51.520;6.764;2023-05-25T10:06:55;102513.16;;;19.35
69785;BMP280;14177;51.520;6.764;2023-05-25T10:09:29;102518.25;;;19.18
69785;BMP280;14177;51.520;6.764;2023-05-25T10:11:58;102525.78;;;19.04
69785;BMP280;14177;51.520;6.764;2023-05-25T10:14:29;102521.88;;;18.92
69785;BMP280;14177;51.520;6.764;2023-05-25T10:16:59;102524.16;;;18.78
69785;BMP280;14177;51.520;6.764;2023-05-25T10:19:59;102521.19;;;18.64
69785;BMP280;14177;51.520;6.764;2023-05-25T10:22:56;102524.50;;;18.69
69785;BMP280;14177;51.520;6.764;2023-05-25T10:25:39;102520.88;;;18.95
69785;BMP280;14177;51.520;6.764;2023-05-25T10:28:28;102519.16;;;19.38
69785;BMP280;14177;51.520;6.764;2023-05-25T10:30:58;102522.66;;;19.60
69785;BMP280;14177;51.520;6.764;2023-05-25T10:33:26;102511.56;;;19.72
69785;BMP280;14177;51.520;6.764;2023-05-25T10:35:54;102515.28;;;19.88
69785;BMP280;14177;51.520;6.764;2023-05-25T10:38:55;102514.09;;;19.95
69785;BMP280;14177;51.520;6.764;2023-05-25T10:48:57;102516.84;;;19.72
69785;BMP280;14177;51.520;6.764;2023-05-25T10:52:36;102521.56;;;19.44
69785;BMP280;14177;51.520;6.764;2023-05-25T10:55:19;102511.63;;;19.29
69785;BMP280;14177;51.520;6.764;2023-05-25T10:58:26;102517.59;;;19.11
69785;BMP280;14177;51.520;6.764;2023-05-25T11:01:21;102521.72;;;18.95
69785;BMP280;14177;51.520;6.764;2023-05-25T11:14:39;102506.72;;;18.97
69785;BMP280;14177;51.520;6.764;2023-05-25T11:17:21;102514.22;;;19.08
69785;BMP280;14177;51.520;6.764;2023-05-25T11:24:40;102498.38;;;20.13
69785;BMP280;14177;51.520;6.764;2023-05-25T11:28:02;102478.25;;;20.31
69785;BMP280;14177;51.520;6.764;2023-05-25T11:30:48;102495.16;;;20.27
69785;BMP280;14177;51.520;6.764;2023-05-25T11:33:38;102499.50;;;20.28
69785;BMP280;14177;51.520;6.764;2023-05-25T11:37:11;102481.59;;;20.14
69785;BMP280;14177;51.520;6.764;2023-05-25T11:39:55;102487.50;;;20.01
69785;BMP280;14177;51.520;6.764;2023-05-25T11:42:51;102484.38;;;19.91
69785;BMP280;14177;51.520;6.764;2023-05-25T11:45:55;102479.41;;;19.84
69785;BMP280;14177;51.520;6.764;2023-05-25T11:49:05;102476.09;;;20.00
69785;BMP280;14177;51.520;6.764;2023-05-25T11:51:58;102478.91;;;20.16
69785;BMP280;14177;51.520;6.764;2023-05-25T11:55:30;102477.63;;;20.44
69785;BMP280;14177;51.520;6.764;2023-05-25T11:58:26;102466.38;;;20.96
69785;BMP280;14177;51.520;6.764;2023-05-25T12:01:23;102460.88;;;21.36
69785;BMP280;14177;51.520;6.764;2023-05-25T12:04:21;102458.44;;;21.31
69785;BMP280;14177;51.520;6.764;2023-05-25T12:08:03;102459.59;;;21.78
69785;BMP280;14177;51.520;6.764;2023-05-25T12:11:39;102458.56;;;22.47
69785;BMP280;14177;51.520;6.764;2023-05-25T12:14:51;102444.75;;;23.04
69785;BMP280;14177;51.520;6.764;2023-05-25T12:17:31;102444.84;;;23.18
69785;BMP280;14177;51.520;6.764;2023-05-25T12:20:28;102444.75;;;23.48
69785;BMP280;14177;51.520;6.764;2023-05-25T12:24:03;102439.25;;;23.67
69785;BMP280;14177;51.520;6.764;2023-05-25T12:27:33;102421.28;;;23.56
69785;BMP280;14177;51.520;6.764;2023-05-25T12:30:14;102431.66;;;23.45
69785;BMP280;14177;51.520;6.764;2023-05-25T12:33:03;102426.72;;;23.39
69785;BMP280;14177;51.520;6.764;2023-05-25T12:41:23;102421.06;;;23.01
69785;BMP280;14177;51.520;6.764;2023-05-25T12:54:32;102419.53;;;22.50
69785;BMP280;14177;51.520;6.764;2023-05-25T12:57:43;102425.88;;;22.31
69785;BMP280;14177;51.520;6.764;2023-05-25T13:02:58;102420.28;;;22.68
69785;BMP280;14177;51.520;6.764;2023-05-25T13:05:31;102421.75;;;23.20
69785;BMP280;14177;51.520;6.764;2023-05-25T13:08:03;102416.97;;;23.69
69785;BMP280;14177;51.520;6.764;2023-05-25T13:10:36;102407.72;;;24.04
69785;BMP280;14177;51.520;6.764;2023-05-25T13:13:03;102407.91;;;24.29
69785;BMP280;14177;51.520;6.764;2023-05-25T13:15:30;102394.31;;;24.48
69785;BMP280;14177;51.520;6.764;2023-05-25T13:17:58;102391.88;;;24.45
69785;BMP280;14177;51.520;6.764;2023-05-25T13:20:26;102392.28;;;24.11
69785;BMP280;14177;51.520;6.764;2023-05-25T13:22:57;102398.63;;;23.80
69785;BMP280;14177;51.520;6.764;2023-05-25T13:25:24;102399.63;;;23.35
69785;BMP280;14177;51.520;6.764;2023-05-25T13:27:54;102400.09;;;23.27
69785;BMP280;14177;51.520;6.764;2023-05-25T13:30:23;102402.78;;;23.12
69785;BMP280;14177;51.520;6.764;2023-05-25T13:32:51;102405.31;;;22.98
69785;BMP280;14177;51.520;6.764;2023-05-25T13:35:18;102403.31;;;22.87
69785;BMP280;14177;51.520;6.764;2023-05-25T13:38:03;102391.03;;;23.00
69785;BMP280;14177;51.520;6.764;2023-05-25T13:40:31;102390.47;;;23.11
69785;BMP280;14177;51.520;6.764;2023-05-25T13:42:58;102389.16;;;23.18
69785;BMP280;14177;51.520;6.764;2023-05-25T13:45:25;102390.69;;;23.51
69785;BMP280;14177;51.520;6.764;2023-05-25T13:47:52;102389.44;;;24.00
69785;BMP280;14177;51.520;6.764;2023-05-25T13:50:19;102382.78;;;24.49
69785;BMP280;14177;51.520;6.764;2023-05-25T13:52:47;102380.38;;;24.72
69785;BMP280;14177;51.520;6.764;2023-05-25T13:55:14;102383.50;;;24.65
69785;BMP280;14177;51.520;6.764;2023-05-25T13:57:42;102390.84;;;24.19
69785;BMP280;14177;51.520;6.764;2023-05-25T14:00:09;102386.00;;;23.84
69785;BMP280;14177;51.520;6.764;2023-05-25T14:02:37;102383.81;;;23.76
69785;BMP280;14177;51.520;6.764;2023-05-25T14:05:05;102386.44;;;23.62
69785;BMP280;14177;51.520;6.764;2023-05-25T14:07:32;102380.38;;;23.60
69785;BMP280;14177;51.520;6.764;2023-05-25T14:09:59;102371.47;;;23.61
69785;BMP280;14177;51.520;6.764;2023-05-25T14:12:27;102375.47;;;23.68
69785;BMP280;14177;51.520;6.764;2023-05-25T14:14:54;102377.50;;;23.93
69785;BMP280;14177;51.520;6.764;2023-05-25T14:17:22;102380.63;;;24.13
69785;BMP280;14177;51.520;6.764;2023-05-25T14:19:58;102368.41;;;24.25
69785;BMP280;14177;51.520;6.764;2023-05-25T14:22:38;102363.72;;;24.28
69785;BMP280;14177;51.520;6.764;2023-05-25T14:25:58;102356.50;;;24.44
69785;BMP280;14177;51.520;6.764;2023-05-25T14:28:47;102357.06;;;24.35
69785;BMP280;14177;51.520;6.764;2023-05-25T14:32:29;102367.38;;;23.99
69785;BMP280;14177;51.520;6.764;2023-05-25T14:35:27;102372.09;;;23.80
69785;BMP280;14177;51.520;6.764;2023-05-25T14:38:35;102356.31;;;23.77
69785;BMP280;14177;51.520;6.764;2023-05-25T14:42:35;102365.25;;;24.04
69785;BMP280;14177;51.520;6.764;2023-05-25T14:46:20;102362.84;;;24.56
69785;BMP280;14177;51.520;6.764;2023-05-25T14:49:01;102349.47;;;24.83
69785;BMP280;14177;51.520;6.764;2023-05-25T14:51:43;102358.59;;;24.53
69785;BMP280;14177;51.520;6.764;2023-05-25T14:55:09;102359.94;;;24.04
69785;BMP280;14177;51.520;6.764;2023-05-25T14:57:56;102359.41;;;23.85
69785;BMP280;14177;51.520;6.764;2023-05-25T15:00:26;102359.44;;;23.70
69785;BMP280;14177;51.520;6.764;2023-05-25T15:03:03;102364.41;;;24.04
69785;BMP280;14177;51.520;6.764;2023-05-25T15:05:33;102360.28;;;24.40
69785;BMP280;14177;51.520;6.764;2023-05-25T15:08:05;102353.06;;;24.70
69785;BMP280;14177;51.520;6.764;2023-05-25T15:10:39;102352.38;;;24.93
69785;BMP280;14177;51.520;6.764;2023-05-25T15:13:11;102346.84;;;24.96
69785;BMP280;14177;51.520;6.764;2023-05-25T15:15:52;102350.50;;;24.81
69785;BMP280;14177;51.520;6.764;2023-05-25T15:18:31;102348.34;;;25.00
69785;BMP280;14177;51.520;6.764;2023-05-25T15:21:00;102348.28;;;25.14
69785;BMP280;14177;51.520;6.764;2023-05-25T15:23:46;102347.75;;;25.09
69785;BMP280;14177;51.520;6.764;2023-05-25T15:26:16;102356.13;;;25.03
69785;BMP280;14177;51.520;6.764;2023-05-25T15:29:14;102337.91;;;24.97
69785;BMP280;14177;51.520;6.764;2023-05-25T15:32:01;102341.03;;;24.77
69785;BMP280;14177;51.520;6.764;2023-05-25T15:34:39;102354.88;;;24.56
69785;BMP280;14177;51.520;6.764;2023-05-25T15:40:15;102339.34;;;24.36
69785;BMP280;14177;51.520;6.764;2023-05-25T15:43:06;102339.81;;;24.42
69785;BMP280;14177;51.520;6.764;2023-05-25T15:45:58;102328.63;;;24.51
69785;BMP280;14177;51.520;6.764;2023-05-25T15:48:36;102327.63;;;24.66
69785;BMP280;14177;51.520;6.764;2023-05-25T15:51:15;102320.50;;;24.67
69785;BMP280;14177;51.520;6.764;2023-05-25T15:53:59;102332.78;;;24.41
69785;BMP280;14177;51.520;6.764;2023-05-25T15:56:42;102326.28;;;24.19
69785;BMP280;14177;51.520;6.764;2023-05-25T15:59:13;102322.88;;;24.17